createdAt,value
2018-04-17T00:01:22.266Z,90.20
2018-04-17T00:03:48.578Z,90.10
2018-04-17T00:06:15.831Z,90.00
2018-04-17T00:08:42.222Z,90.00
2018-04-17T00:11:09.298Z,90.00
2018-04-17T00:13:35.601Z,90.00
2018-04-17T00:16:02.710Z,90.20
2018-04-17T00:18:28.948Z,90.20
2018-04-17T00:20:55.280Z,90.40
2018-04-17T00:23:21.553Z,90.40
2018-04-17T00:25:48.139Z,90.30
2018-04-17T00:28:15.199Z,90.40
2018-04-17T00:30:42.522Z,90.10
2018-04-17T00:33:09.137Z,90.00
2018-04-17T00:35:35.584Z,90.00
2018-04-17T00:38:02.137Z,90.00
2018-04-17T00:40:28.606Z,90.10
2018-04-17T00:42:55.055Z,90.10
2018-04-17T00:45:21.288Z,90.30
2018-04-17T00:47:47.700Z,90.30
2018-04-17T00:50:14.838Z,90.40
2018-04-17T00:52:41.155Z,90.30
2018-04-17T00:55:07.538Z,90.40
2018-04-17T00:57:33.819Z,90.30
2018-04-17T01:00:00.097Z,90.40
2018-04-17T01:02:26.569Z,90.40
2018-04-17T01:04:53.730Z,90.60
2018-04-17T01:07:20.718Z,90.50
2018-04-17T01:09:49.664Z,90.50
2018-04-17T01:12:17.117Z,90.50
2018-04-17T01:14:43.410Z,90.60
2018-04-17T01:17:10.542Z,90.70
2018-04-17T01:19:37.162Z,90.70
2018-04-17T01:22:03.505Z,90.60
2018-04-17T01:24:29.806Z,91.20
2018-04-17T01:26:56.895Z,91.50
2018-04-17T01:29:24.814Z,91.40
2018-04-17T01:31:51.248Z,91.40
2018-04-17T01:34:17.715Z,90.70
2018-04-17T01:36:44.812Z,91.00
2018-04-17T01:39:11.916Z,91.10
2018-04-17T01:41:38.546Z,91.10
2018-04-17T01:44:04.903Z,91.20
2018-04-17T01:46:31.387Z,91.40
2018-04-17T01:48:57.722Z,91.60
2018-04-17T01:51:24.095Z,91.70
2018-04-17T01:53:51.158Z,91.60
2018-04-17T01:56:18.188Z,91.60
2018-04-17T01:58:44.527Z,91.60
2018-04-17T02:01:10.940Z,91.80
2018-04-17T02:03:37.366Z,92.00
2018-04-17T02:06:03.663Z,92.10
2018-04-17T02:08:29.921Z,92.10
2018-04-17T02:10:56.939Z,92.40
2018-04-17T02:13:23.480Z,92.10
2018-04-17T02:15:49.770Z,92.10
2018-04-17T02:18:16.021Z,92.00
2018-04-17T02:20:42.384Z,92.00
2018-04-17T02:23:08.765Z,92.40
2018-04-17T02:25:35.075Z,92.10
2018-04-17T02:28:01.363Z,92.20
2018-04-17T02:30:27.605Z,92.20
2018-04-17T02:32:53.839Z,92.10
2018-04-17T02:35:20.158Z,92.10
2018-04-17T02:37:46.492Z,92.10
2018-04-17T02:40:12.842Z,92.30
2018-04-17T02:42:39.263Z,92.30
2018-04-17T02:45:06.332Z,92.50
2018-04-17T02:47:32.693Z,92.50
2018-04-17T02:49:58.904Z,92.50
2018-04-17T02:52:25.912Z,92.10
2018-04-17T02:54:52.235Z,92.00
2018-04-17T02:57:18.543Z,91.60
2018-04-17T02:59:44.910Z,91.50
2018-04-17T03:02:11.200Z,91.70
2018-04-17T03:04:37.531Z,91.70
2018-04-17T03:07:04.593Z,91.90
2018-04-17T03:09:30.926Z,91.80
2018-04-17T03:11:57.233Z,91.80
2018-04-17T03:14:24.259Z,92.10
2018-04-17T03:16:50.584Z,92.10
2018-04-17T03:19:16.846Z,92.20
2018-04-17T03:21:43.187Z,92.30
2018-04-17T03:24:09.556Z,92.30
2018-04-17T03:26:35.933Z,92.10
2018-04-17T03:29:02.208Z,91.80
2018-04-17T03:31:28.725Z,91.40
2018-04-17T03:33:55.077Z,91.40
2018-04-17T03:36:21.407Z,91.30
2018-04-17T03:38:47.790Z,91.30
2018-04-17T03:41:14.752Z,91.30
2018-04-17T03:43:43.080Z,91.30
2018-04-17T03:46:10.110Z,91.30
2018-04-17T03:48:36.507Z,91.30
2018-04-17T03:51:02.774Z,91.30
2018-04-17T03:53:29.020Z,91.20
2018-04-17T03:55:55.320Z,91.20
2018-04-17T03:58:21.629Z,91.40
2018-04-17T04:00:48.734Z,91.80
2018-04-17T04:03:15.217Z,91.70
2018-04-17T04:05:41.522Z,91.40
2018-04-17T04:08:07.910Z,91.50
2018-04-17T04:10:34.189Z,91.40
2018-04-17T04:13:00.505Z,91.30
2018-04-17T04:15:26.765Z,91.30
2018-04-17T04:18:05.447Z,91.30
2018-04-17T04:20:43.983Z,91.30
2018-04-17T04:23:23.384Z,91.30
2018-04-17T04:26:02.086Z,91.20
2018-04-17T04:28:29.886Z,91.20
2018-04-17T04:30:56.886Z,91.10
2018-04-17T04:33:23.259Z,91.10
2018-04-17T04:35:49.562Z,90.80
2018-04-17T04:38:15.960Z,90.30
2018-04-17T04:40:42.531Z,90.10
2018-04-17T04:43:08.884Z,90.20
2018-04-17T04:45:35.349Z,90.30
2018-04-17T04:48:01.597Z,90.30
2018-04-17T04:50:28.012Z,90.10
2018-04-17T04:53:06.464Z,90.20
2018-04-17T04:55:33.255Z,90.20
2018-04-17T04:57:59.593Z,90.40
2018-04-17T05:00:25.898Z,90.30
2018-04-17T05:02:52.219Z,90.10
2018-04-17T05:05:29.660Z,90.40
2018-04-17T05:07:56.084Z,90.40
2018-04-17T05:10:22.550Z,90.10
2018-04-17T05:12:48.890Z,90.00
2018-04-17T05:15:17.955Z,89.60
2018-04-17T05:17:48.695Z,90.20
2018-04-17T05:20:16.410Z,90.20
2018-04-17T05:22:43.087Z,89.30
2018-04-17T05:25:12.951Z,89.10
2018-04-17T05:27:40.413Z,90.00
2018-04-17T05:30:07.519Z,89.90
2018-04-17T05:32:34.007Z,90.00
2018-04-17T05:35:02.621Z,90.20
2018-04-17T05:37:29.271Z,90.00
2018-04-17T05:39:56.218Z,90.00
2018-04-17T05:42:23.701Z,90.20
2018-04-17T05:44:50.473Z,89.80
2018-04-17T05:47:19.801Z,89.80
2018-04-17T05:49:46.196Z,89.80
2018-04-17T05:52:16.482Z,89.30
2018-04-17T05:54:43.077Z,89.30
2018-04-17T05:57:09.552Z,88.60
2018-04-17T05:59:36.726Z,89.00
2018-04-17T06:02:03.069Z,89.00
2018-04-17T06:04:29.409Z,88.30
2018-04-17T06:06:55.662Z,88.10
2018-04-17T06:09:24.620Z,87.90
2018-04-17T06:11:50.967Z,87.10
2018-04-17T06:14:17.357Z,86.30
2018-04-17T06:16:43.669Z,85.00
2018-04-17T06:19:10.212Z,84.40
2018-04-17T06:21:36.574Z,84.50
2018-04-17T06:24:02.853Z,84.40
2018-04-17T06:26:29.131Z,84.10
2018-04-17T06:28:55.427Z,84.00
2018-04-17T06:31:21.653Z,83.80
2018-04-17T06:33:48.761Z,84.00
2018-04-17T06:36:15.110Z,83.90
2018-04-17T06:38:41.606Z,83.70
2018-04-17T06:41:09.045Z,82.90
2018-04-17T06:43:36.405Z,83.00
2018-04-17T06:46:02.733Z,81.80
2018-04-17T06:48:29.082Z,81.80
2018-04-17T06:50:55.502Z,82.60
2018-04-17T06:53:21.930Z,83.20
2018-04-17T06:55:49.314Z,82.90
2018-04-17T06:58:15.613Z,83.20
2018-04-17T07:00:41.885Z,81.30
2018-04-17T07:03:08.316Z,79.40
2018-04-17T07:05:35.351Z,79.40
2018-04-17T07:08:30.340Z,79.40
2018-04-17T07:11:06.728Z,79.20
2018-04-17T07:13:40.760Z,78.60
2018-04-17T07:16:12.375Z,77.00
2018-04-17T07:18:41.716Z,74.10
2018-04-17T07:21:08.214Z,74.00
2018-04-17T07:23:38.502Z,74.00
2018-04-17T07:26:05.676Z,73.60
2018-04-17T07:28:41.706Z,73.60
2018-04-17T07:31:08.072Z,70.40
2018-04-17T07:33:34.809Z,70.30
2018-04-17T07:36:01.786Z,66.00
2018-04-17T07:38:28.142Z,65.80
2018-04-17T07:40:55.486Z,63.00
2018-04-17T07:43:21.974Z,62.30
2018-04-17T07:45:48.302Z,62.30
2018-04-17T07:48:26.834Z,63.50
2018-04-17T07:50:54.090Z,65.90
2018-04-17T07:53:23.543Z,66.50
2018-04-17T07:55:49.908Z,69.50
2018-04-17T07:58:16.146Z,69.70
2018-04-17T08:00:42.478Z,70.60
2018-04-17T08:03:08.867Z,71.60
2018-04-17T08:05:36.108Z,69.90
2018-04-17T08:08:03.117Z,70.60
2018-04-17T08:10:29.811Z,70.60
2018-04-17T08:12:56.895Z,71.10
2018-04-17T08:15:24.066Z,71.10
2018-04-17T08:17:50.353Z,71.90
2018-04-17T08:20:16.754Z,71.60
2018-04-17T08:22:43.122Z,71.40
2018-04-17T08:25:09.501Z,71.30
2018-04-17T08:27:36.003Z,70.50
2018-04-17T08:30:02.344Z,71.30
2018-04-17T08:32:28.579Z,70.80
2018-04-17T08:34:55.502Z,69.30
2018-04-17T08:37:22.614Z,67.90
2018-04-17T08:39:51.905Z,67.80
2018-04-17T08:42:21.524Z,66.90
2018-04-17T08:44:48.024Z,67.40
2018-04-17T08:47:14.514Z,64.30
2018-04-17T08:49:41.064Z,65.50
2018-04-17T08:52:10.101Z,65.00
2018-04-17T08:54:36.628Z,64.30
2018-04-17T08:57:03.156Z,65.60
2018-04-17T08:59:29.720Z,64.90
2018-04-17T09:01:56.306Z,61.70
2018-04-17T09:04:22.766Z,62.00
2018-04-17T09:06:49.972Z,60.80
2018-04-17T09:09:16.394Z,60.80
2018-04-17T09:11:43.056Z,59.70
2018-04-17T09:14:12.944Z,58.80
2018-04-17T09:16:40.426Z,58.90
2018-04-17T09:19:08.244Z,58.00
2018-04-17T09:24:14.268Z,56.50
2018-04-17T09:26:40.736Z,56.50
2018-04-17T09:29:09.214Z,56.70
2018-04-17T09:31:36.457Z,56.80
2018-04-17T09:34:02.826Z,55.30
2018-04-17T09:36:29.259Z,54.60
2018-04-17T09:38:55.693Z,54.90
2018-04-17T09:41:26.205Z,54.30
2018-04-17T09:43:53.277Z,55.70
2018-04-17T09:46:20.319Z,55.40
2018-04-17T09:48:46.617Z,55.50
2018-04-17T09:51:12.983Z,56.30
2018-04-17T09:53:39.514Z,57.40
2018-04-17T09:56:05.920Z,57.40
2018-04-17T09:58:32.396Z,57.60
2018-04-17T10:01:01.534Z,57.60
2018-04-17T10:03:27.818Z,57.10
2018-04-17T10:05:54.794Z,56.90
2018-04-17T10:08:21.085Z,56.90
2018-04-17T10:10:47.469Z,57.30
2018-04-17T10:13:13.862Z,57.20
2018-04-17T10:15:40.249Z,57.40
2018-04-17T10:18:06.618Z,56.70
2018-04-17T10:20:33.064Z,55.90
2018-04-17T10:22:59.410Z,56.00
2018-04-17T10:25:25.743Z,55.90
2018-04-17T10:27:52.093Z,55.80
2018-04-17T10:30:18.392Z,55.30
2018-04-17T10:32:46.053Z,55.50
2018-04-17T10:35:12.461Z,54.40
2018-04-17T10:37:38.952Z,54.50
2018-04-17T10:40:05.205Z,55.30
2018-04-17T10:42:32.227Z,54.60
2018-04-17T10:44:58.496Z,54.90
2018-04-17T10:47:26.457Z,53.90
2018-04-17T10:49:52.742Z,53.80
2018-04-17T10:52:19.003Z,53.40
2018-04-17T10:54:45.324Z,53.90
2018-04-17T10:57:11.716Z,53.50
2018-04-17T10:59:38.098Z,54.50
2018-04-17T11:02:05.805Z,54.10
2018-04-17T11:04:32.106Z,53.80
2018-04-17T11:07:00.129Z,53.00
2018-04-17T11:09:28.945Z,53.10
2018-04-17T11:11:55.380Z,53.40
2018-04-17T11:14:22.043Z,52.70
2018-04-17T11:16:48.913Z,53.70
2018-04-17T11:19:15.389Z,53.30
2018-04-17T11:21:42.608Z,52.70
2018-04-17T11:24:09.092Z,52.70
2018-04-17T11:26:36.113Z,54.00
2018-04-17T11:29:02.516Z,54.70
2018-04-17T11:31:29.391Z,55.00
2018-04-17T11:33:56.573Z,52.60
2018-04-17T11:36:23.137Z,53.10
2018-04-17T11:38:50.200Z,54.10
2018-04-17T11:41:16.616Z,53.50
2018-04-17T11:43:47.202Z,53.60
2018-04-17T11:46:13.734Z,51.70
2018-04-17T11:48:40.308Z,51.30
2018-04-17T11:51:06.837Z,51.70
2018-04-17T11:53:33.364Z,51.80
2018-04-17T11:55:59.787Z,51.40
2018-04-17T11:58:26.216Z,50.80
2018-04-17T12:00:53.257Z,50.00
2018-04-17T12:03:21.110Z,49.40
2018-04-17T12:05:48.177Z,49.30
2018-04-17T12:08:14.559Z,49.40
2018-04-17T12:10:40.929Z,48.80
2018-04-17T12:13:08.108Z,48.70
2018-04-17T12:15:34.519Z,50.00
2018-04-17T12:18:02.648Z,49.70
2018-04-17T12:20:29.724Z,49.50
2018-04-17T12:22:57.906Z,49.10
2018-04-17T12:25:24.378Z,48.80
2018-04-17T12:27:51.739Z,49.10
2018-04-17T12:30:18.247Z,50.00
2018-04-17T12:32:44.828Z,49.90
2018-04-17T12:35:13.245Z,48.30
2018-04-17T12:37:39.617Z,48.50
2018-04-17T12:40:07.073Z,47.90
2018-04-17T12:42:34.526Z,46.40
2018-04-17T12:45:01.920Z,45.80
2018-04-17T12:47:28.976Z,46.70
2018-04-17T12:49:56.122Z,47.00
2018-04-17T12:52:26.424Z,47.80
2018-04-17T12:54:53.389Z,47.30
2018-04-17T12:57:20.480Z,46.60
2018-04-17T12:59:46.855Z,46.60
2018-04-17T13:02:14.049Z,46.80
2018-04-17T13:04:41.190Z,45.10
2018-04-17T13:07:11.537Z,44.50
2018-04-17T13:09:38.166Z,43.90
2018-04-17T13:12:04.764Z,42.70
2018-04-17T13:14:32.020Z,42.90
2018-04-17T13:16:58.619Z,43.10
2018-04-17T13:19:24.975Z,42.40
2018-04-17T13:21:52.147Z,42.70
2018-04-17T13:24:20.616Z,43.20
2018-04-17T13:26:46.903Z,44.20
2018-04-17T13:29:13.231Z,43.80
2018-04-17T13:31:39.517Z,43.90
2018-04-17T13:34:05.869Z,46.30
2018-04-17T13:36:32.992Z,47.00
2018-04-17T13:38:59.396Z,46.90
2018-04-17T13:41:26.469Z,46.90
2018-04-17T13:43:52.805Z,46.80
2018-04-17T13:46:19.931Z,44.50
2018-04-17T13:48:46.367Z,44.50
2018-04-17T13:51:15.059Z,45.80
2018-04-17T13:53:42.790Z,44.70
2018-04-17T13:56:09.495Z,44.40
2018-04-17T13:58:44.862Z,43.70
2018-04-17T14:01:11.347Z,42.90
2018-04-17T14:03:37.778Z,42.80
2018-04-17T14:06:04.229Z,43.40
2018-04-17T14:08:43.453Z,42.50
2018-04-17T14:11:09.773Z,42.40
2018-04-17T14:13:36.249Z,42.80
2018-04-17T14:16:04.762Z,42.10
2018-04-17T14:18:44.987Z,41.50
2018-04-17T14:21:13.348Z,41.30
2018-04-17T14:23:39.753Z,41.80
2018-04-17T14:26:17.989Z,42.60
2018-04-17T14:28:44.509Z,41.20
2018-04-17T14:31:11.732Z,41.80
2018-04-17T14:33:38.345Z,41.80
2018-04-17T14:36:07.063Z,41.40
2018-04-17T14:38:37.638Z,41.50
2018-04-17T14:41:04.022Z,41.60
2018-04-17T14:43:30.313Z,41.60
2018-04-17T14:45:56.712Z,40.80
2018-04-17T14:48:23.884Z,42.10
2018-04-17T14:50:50.985Z,42.10
2018-04-17T14:53:17.419Z,42.10
2018-04-17T14:55:43.722Z,42.10
2018-04-17T14:58:10.777Z,42.40
2018-04-17T15:00:37.061Z,42.30
2018-04-17T15:03:03.391Z,42.70
2018-04-17T15:05:30.043Z,42.10
2018-04-17T15:07:56.313Z,41.80
2018-04-17T15:10:23.332Z,41.30
2018-04-17T15:12:50.372Z,42.10
2018-04-17T15:15:16.710Z,42.10
2018-04-17T15:17:43.027Z,43.40
2018-04-17T15:20:10.355Z,41.90
2018-04-17T15:22:36.811Z,42.30
2018-04-17T15:25:03.798Z,42.70
2018-04-17T15:27:30.883Z,41.40
2018-04-17T15:29:57.157Z,41.40
2018-04-17T15:32:24.234Z,42.10
2018-04-17T15:34:50.604Z,42.00
2018-04-17T15:37:17.089Z,42.30
2018-04-17T15:39:44.256Z,42.60
2018-04-17T15:42:11.423Z,42.90
2018-04-17T15:44:40.921Z,42.80
2018-04-17T15:47:07.251Z,43.30
2018-04-17T15:49:33.551Z,43.10
2018-04-17T15:51:59.982Z,43.80
2018-04-17T15:54:26.357Z,43.70
2018-04-17T15:56:52.681Z,45.20
2018-04-17T15:59:18.983Z,45.00
2018-04-17T16:01:47.278Z,44.70
2018-04-17T16:04:14.406Z,45.60
2018-04-17T16:06:40.728Z,45.60
2018-04-17T16:09:07.009Z,45.20
2018-04-17T16:11:33.266Z,45.50
2018-04-17T16:14:00.675Z,45.40
2018-04-17T16:16:26.989Z,46.20
2018-04-17T16:18:53.271Z,45.80
2018-04-17T16:21:19.595Z,45.80
2018-04-17T16:23:46.577Z,46.60
2018-04-17T16:26:12.951Z,46.50
2018-04-17T16:28:39.279Z,46.90
2018-04-17T16:31:05.658Z,46.80
2018-04-17T16:33:32.700Z,47.30
2018-04-17T16:36:01.571Z,47.10
2018-04-17T16:38:27.974Z,47.10
2018-04-17T16:40:56.721Z,47.00
2018-04-17T16:43:23.042Z,47.10
2018-04-17T16:45:50.242Z,47.20
2018-04-17T16:48:16.671Z,47.80
2018-04-17T16:50:42.995Z,48.10
2018-04-17T16:53:11.165Z,49.00
2018-04-17T16:55:38.400Z,49.50
2018-04-17T16:58:06.461Z,49.40
2018-04-17T17:00:32.826Z,49.90
2018-04-17T17:03:00.173Z,50.10
2018-04-17T17:05:26.664Z,50.70
2018-04-17T17:07:53.272Z,51.60
2018-04-17T17:10:19.685Z,51.60
2018-04-17T17:12:45.944Z,51.60
2018-04-17T17:15:12.254Z,51.90
2018-04-17T17:17:38.595Z,52.00
2018-04-17T17:20:06.268Z,52.90
2018-04-17T17:22:33.313Z,52.90
2018-04-17T17:25:01.802Z,52.90
2018-04-17T17:27:28.082Z,53.60
2018-04-17T17:29:54.390Z,53.50
2018-04-17T17:32:20.702Z,53.90
2018-04-17T17:34:50.219Z,54.70
2018-04-17T17:37:16.504Z,54.70
2018-04-17T17:39:43.540Z,55.70
2018-04-17T17:42:09.964Z,55.70
2018-04-17T17:44:41.325Z,56.10
2018-04-17T17:47:07.698Z,56.60
2018-04-17T17:49:34.222Z,56.90
2018-04-17T17:52:00.552Z,57.20
2018-04-17T17:54:26.858Z,57.10
2018-04-17T17:56:53.112Z,57.30
2018-04-17T17:59:19.502Z,57.80
2018-04-17T18:01:46.090Z,58.10
2018-04-17T18:04:14.624Z,58.40
2018-04-17T18:06:45.620Z,58.60
2018-04-17T18:09:13.653Z,58.90
2018-04-17T18:11:40.306Z,58.60
2018-04-17T18:14:08.763Z,59.70
2018-04-17T18:16:35.117Z,59.80
2018-04-17T18:19:02.595Z,59.80
2018-04-17T18:21:29.688Z,60.20
2018-04-17T18:23:56.030Z,60.20
2018-04-17T18:26:22.882Z,60.50
2018-04-17T18:28:49.273Z,61.20
2018-04-17T18:31:15.739Z,61.30
2018-04-17T18:33:44.678Z,62.30
2018-04-17T18:36:11.218Z,62.30
2018-04-17T18:38:38.439Z,62.90
2018-04-17T18:41:04.902Z,62.30
2018-04-17T18:43:32.076Z,63.40
2018-04-17T18:45:59.947Z,63.20
2018-04-17T18:48:28.902Z,63.60
2018-04-17T18:50:58.161Z,63.60
2018-04-17T18:53:24.654Z,63.70
2018-04-17T18:55:51.128Z,64.30
2018-04-17T18:58:17.518Z,64.50
2018-04-17T19:00:51.271Z,64.80
2018-04-17T19:03:17.627Z,64.70
2018-04-17T19:05:44.126Z,65.20
2018-04-17T19:08:10.852Z,65.40
2018-04-17T19:10:38.319Z,65.60
2018-04-17T19:13:04.742Z,65.80
2018-04-17T19:15:31.132Z,66.00
2018-04-17T19:17:58.216Z,66.40
2018-04-17T19:20:39.260Z,66.30
2018-04-17T19:23:06.552Z,66.90
2018-04-17T19:25:32.993Z,66.90
2018-04-17T19:28:00.049Z,67.30
2018-04-17T19:30:26.617Z,67.20
2018-04-17T19:32:58.515Z,67.70
2018-04-17T19:35:24.894Z,68.10
2018-04-17T19:37:51.306Z,68.40
2018-04-17T19:40:20.675Z,68.80
2018-04-17T19:42:47.095Z,69.30
2018-04-17T19:45:14.312Z,69.80
2018-04-17T19:47:40.729Z,70.20
2018-04-17T19:50:08.113Z,70.60
2018-04-17T19:52:35.610Z,71.10
2018-04-17T19:55:02.059Z,71.10
2018-04-17T19:57:28.495Z,71.30
2018-04-17T19:59:55.734Z,71.70
2018-04-17T20:02:27.649Z,72.40
2018-04-17T20:04:59.211Z,72.40
2018-04-17T20:07:26.516Z,72.60
2018-04-17T20:09:52.776Z,73.20
2018-04-17T20:12:19.893Z,74.30
2018-04-17T20:14:46.219Z,74.00
2018-04-17T20:17:12.695Z,74.20
2018-04-17T20:19:39.347Z,74.20
2018-04-17T20:22:07.722Z,74.50
2018-04-17T20:24:36.350Z,74.50
2018-04-17T20:27:08.491Z,74.90
2018-04-17T20:29:34.937Z,75.10
2018-04-17T20:32:01.248Z,75.60
2018-04-17T20:34:29.569Z,75.70
2018-04-17T20:36:55.837Z,76.10
2018-04-17T20:39:28.507Z,76.20
2018-04-17T20:41:55.627Z,76.40
2018-04-17T20:44:22.074Z,76.70
2018-04-17T20:46:48.577Z,76.90
2018-04-17T20:49:36.988Z,77.50
2018-04-17T20:52:09.070Z,77.50
2018-04-17T20:54:38.308Z,77.60
2018-04-17T20:57:04.936Z,77.90
2018-04-17T20:59:34.317Z,78.10
2018-04-17T21:02:05.433Z,78.60
2018-04-17T21:04:35.408Z,78.90
2018-04-17T21:07:07.980Z,78.80
2018-04-17T21:09:37.274Z,78.90
2018-04-17T21:12:10.986Z,79.20
2018-04-17T21:14:37.890Z,79.30
2018-04-17T21:17:04.763Z,79.40
2018-04-17T21:19:38.661Z,79.70
2018-04-17T21:22:06.436Z,79.70
2018-04-17T21:24:36.569Z,79.80
2018-04-17T21:27:03.671Z,79.10
2018-04-17T21:29:32.236Z,79.10
2018-04-17T21:31:59.340Z,79.60
2018-04-17T21:34:26.608Z,79.60
2018-04-17T21:36:52.903Z,79.60
2018-04-17T21:39:19.154Z,79.60
2018-04-17T21:41:45.398Z,79.40
2018-04-17T21:44:11.772Z,79.50
2018-04-17T21:46:38.224Z,79.30
2018-04-17T21:49:04.520Z,79.60
2018-04-17T21:51:30.771Z,79.70
2018-04-17T21:53:57.184Z,79.90
2018-04-17T21:56:24.431Z,80.20
2018-04-17T21:58:51.987Z,80.70
2018-04-17T22:01:25.188Z,81.20
2018-04-17T22:03:52.233Z,81.30
2018-04-17T22:06:21.261Z,81.30
2018-04-17T22:08:47.556Z,81.30
2018-04-17T22:11:14.924Z,81.40
2018-04-17T22:13:41.241Z,81.80
2018-04-17T22:16:08.464Z,82.70
2018-04-17T22:18:34.807Z,82.30
2018-04-17T22:21:01.892Z,80.60
2018-04-17T22:23:28.178Z,80.60
2018-04-17T22:25:54.659Z,80.70
2018-04-17T22:28:21.707Z,81.30
2018-04-17T22:30:48.014Z,81.30
2018-04-17T22:33:14.316Z,81.50
2018-04-17T22:35:40.619Z,81.40
2018-04-17T22:38:06.932Z,81.90
2018-04-17T22:40:33.330Z,83.10
2018-04-17T22:43:00.539Z,83.70
2018-04-17T22:45:26.823Z,83.60
2018-04-17T22:47:53.889Z,83.80
2018-04-17T22:50:20.931Z,84.00
2018-04-17T22:52:47.232Z,83.80
2018-04-17T22:55:13.547Z,84.30
2018-04-17T22:57:39.884Z,84.10
2018-04-17T23:00:06.935Z,84.30
2018-04-17T23:02:33.966Z,84.30
2018-04-17T23:05:00.240Z,84.20
2018-04-17T23:07:27.250Z,84.60
2018-04-17T23:09:53.662Z,84.40
2018-04-17T23:12:20.754Z,85.60
2018-04-17T23:14:47.023Z,85.60
2018-04-17T23:17:13.304Z,86.30
2018-04-17T23:19:39.582Z,85.90
2018-04-17T23:22:05.846Z,85.70
2018-04-17T23:24:32.099Z,85.30
2018-04-17T23:26:58.442Z,85.10
2018-04-17T23:29:24.791Z,84.90
2018-04-17T23:31:51.096Z,84.40
2018-04-17T23:34:17.393Z,84.70
2018-04-17T23:36:44.536Z,84.30
2018-04-17T23:39:11.547Z,84.70
2018-04-17T23:41:37.838Z,84.70
2018-04-17T23:44:04.094Z,84.80
2018-04-17T23:46:31.121Z,85.50
2018-04-17T23:48:57.460Z,85.40
2018-04-17T23:51:23.806Z,85.10
2018-04-17T23:53:50.085Z,85.30
2018-04-17T23:56:17.390Z,85.10
2018-04-17T23:58:44.478Z,84.90
